sensor_id;sensor_type;location;lat;lon;timestamp;P1;durP1;ratioP1;P2;durP2;ratioP2
8413;SDS011;4244;48.684;9.028;2022-11-24T00:01:24;3.60;;;1.83;;
8413;SDS011;4244;48.684;9.028;2022-11-24T00:03:55;6.77;;;2.30;;
8413;SDS011;4244;48.684;9.028;2022-11-24T00:06:23;6.23;;;2.20;;
8413;SDS011;4244;48.684;9.028;2022-11-24T00:08:49;7.03;;;2.60;;
8413;SDS011;4244;48.684;9.028;2022-11-24T00:11:19;8.63;;;2.37;;
8413;SDS011;4244;48.684;9.028;2022-11-24T00:13:46;6.27;;;2.30;;
8413;SDS011;4244;48.684;9.028;2022-11-24T00:16:13;10.73;;;2.60;;
8413;SDS011;4244;48.684;9.028;2022-11-24T00:18:41;6.50;;;2.07;;
8413;SDS011;4244;48.684;9.028;2022-11-24T00:21:08;6.00;;;2.60;;
8413;SDS011;4244;48.684;9.028;2022-11-24T00:23:34;6.37;;;2.40;;
8413;SDS011;4244;48.684;9.028;2022-11-24T00:26:04;6.10;;;2.60;;
8413;SDS011;4244;48.684;9.028;2022-11-24T00:28:30;5.93;;;2.20;;
8413;SDS011;4244;48.684;9.028;2022-11-24T00:30:57;9.97;;;3.30;;
8413;SDS011;4244;48.684;9.028;2022-11-24T00:33:23;7.40;;;2.17;;
8413;SDS011;4244;48.684;9.028;2022-11-24T00:35:58;5.77;;;2.20;;
8413;SDS011;4244;48.684;9.028;2022-11-24T00:38:24;8.20;;;2.37;;
8413;SDS011;4244;48.684;9.028;2022-11-24T00:40:50;7.93;;;2.23;;
8413;SDS011;4244;48.684;9.028;2022-11-24T00:43:16;9.20;;;2.50;;
8413;SDS011;4244;48.684;9.028;2022-11-24T00:45:42;8.40;;;2.63;;
8413;SDS011;4244;48.684;9.028;2022-11-24T00:48:07;6.33;;;2.70;;
8413;SDS011;4244;48.684;9.028;2022-11-24T00:50:33;5.23;;;2.13;;
8413;SDS011;4244;48.684;9.028;2022-11-24T00:52:59;6.87;;;2.00;;
8413;SDS011;4244;48.684;9.028;2022-11-24T00:55:25;6.97;;;2.13;;
8413;SDS011;4244;48.684;9.028;2022-11-24T00:57:50;7.30;;;2.00;;
8413;SDS011;4244;48.684;9.028;2022-11-24T01:00:17;4.50;;;1.50;;
8413;SDS011;4244;48.684;9.028;2022-11-24T01:02:42;5.80;;;1.90;;
8413;SDS011;4244;48.684;9.028;2022-11-24T01:05:08;5.73;;;2.30;;
8413;SDS011;4244;48.684;9.028;2022-11-24T01:07:34;8.80;;;2.20;;
8413;SDS011;4244;48.684;9.028;2022-11-24T01:09:59;5.00;;;2.20;;
8413;SDS011;4244;48.684;9.028;2022-11-24T01:12:25;5.40;;;1.83;;
8413;SDS011;4244;48.684;9.028;2022-11-24T01:14:51;6.57;;;2.03;;
8413;SDS011;4244;48.684;9.028;2022-11-24T01:17:16;5.97;;;2.20;;
8413;SDS011;4244;48.684;9.028;2022-11-24T01:19:42;7.60;;;2.20;;
8413;SDS011;4244;48.684;9.028;2022-11-24T01:22:08;6.97;;;2.20;;
8413;SDS011;4244;48.684;9.028;2022-11-24T01:24:34;9.97;;;2.53;;
8413;SDS011;4244;48.684;9.028;2022-11-24T01:26:59;8.43;;;1.93;;
8413;SDS011;4244;48.684;9.028;2022-11-24T01:29:25;5.50;;;1.70;;
8413;SDS011;4244;48.684;9.028;2022-11-24T01:31:50;3.30;;;1.80;;
8413;SDS011;4244;48.684;9.028;2022-11-24T01:34:16;8.97;;;2.10;;
8413;SDS011;4244;48.684;9.028;2022-11-24T01:36:42;5.03;;;1.70;;
8413;SDS011;4244;48.684;9.028;2022-11-24T01:39:07;4.33;;;2.00;;
8413;SDS011;4244;48.684;9.028;2022-11-24T01:41:33;8.70;;;1.77;;
8413;SDS011;4244;48.684;9.028;2022-11-24T01:43:59;4.87;;;2.00;;
8413;SDS011;4244;48.684;9.028;2022-11-24T01:48:59;3.57;;;1.37;;
8413;SDS011;4244;48.684;9.028;2022-11-24T01:51:27;3.30;;;1.53;;
8413;SDS011;4244;48.684;9.028;2022-11-24T01:54:01;4.60;;;1.37;;
8413;SDS011;4244;48.684;9.028;2022-11-24T01:56:36;6.20;;;2.10;;
8413;SDS011;4244;48.684;9.028;2022-11-24T01:59:05;5.93;;;1.73;;
8413;SDS011;4244;48.684;9.028;2022-11-24T02:01:31;6.13;;;2.00;;
8413;SDS011;4244;48.684;9.028;2022-11-24T02:03:58;6.33;;;2.10;;
8413;SDS011;4244;48.684;9.028;2022-11-24T02:06:25;5.90;;;1.50;;
8413;SDS011;4244;48.684;9.028;2022-11-24T02:09:00;4.83;;;2.00;;
8413;SDS011;4244;48.684;9.028;2022-11-24T02:11:47;4.00;;;1.67;;
8413;SDS011;4244;48.684;9.028;2022-11-24T02:14:14;6.47;;;1.57;;
8413;SDS011;4244;48.684;9.028;2022-11-24T02:16:41;2.93;;;1.30;;
8413;SDS011;4244;48.684;9.028;2022-11-24T02:19:12;4.43;;;2.23;;
8413;SDS011;4244;48.684;9.028;2022-11-24T02:21:59;3.17;;;1.40;;
8413;SDS011;4244;48.684;9.028;2022-11-24T02:24:28;5.27;;;1.60;;
8413;SDS011;4244;48.684;9.028;2022-11-24T02:27:02;8.13;;;1.77;;
8413;SDS011;4244;48.684;9.028;2022-11-24T02:29:28;5.27;;;1.77;;
8413;SDS011;4244;48.684;9.028;2022-11-24T02:32:00;5.17;;;1.40;;
8413;SDS011;4244;48.684;9.028;2022-11-24T02:34:27;3.43;;;1.60;;
8413;SDS011;4244;48.684;9.028;2022-11-24T02:36:53;6.70;;;2.20;;
8413;SDS011;4244;48.684;9.028;2022-11-24T02:39:18;5.27;;;1.67;;
8413;SDS011;4244;48.684;9.028;2022-11-24T02:41:49;5.20;;;1.40;;
8413;SDS011;4244;48.684;9.028;2022-11-24T02:44:18;7.30;;;1.60;;
8413;SDS011;4244;48.684;9.028;2022-11-24T02:46:44;6.17;;;2.23;;
8413;SDS011;4244;48.684;9.028;2022-11-24T02:49:10;7.37;;;1.80;;
8413;SDS011;4244;48.684;9.028;2022-11-24T02:51:35;6.43;;;1.63;;
8413;SDS011;4244;48.684;9.028;2022-11-24T02:54:01;5.00;;;1.90;;
8413;SDS011;4244;48.684;9.028;2022-11-24T02:56:26;5.07;;;1.63;;
8413;SDS011;4244;48.684;9.028;2022-11-24T02:58:52;2.77;;;1.30;;
8413;SDS011;4244;48.684;9.028;2022-11-24T03:01:17;5.50;;;1.50;;
8413;SDS011;4244;48.684;9.028;2022-11-24T03:03:43;2.63;;;1.30;;
8413;SDS011;4244;48.684;9.028;2022-11-24T03:06:09;4.07;;;1.70;;
8413;SDS011;4244;48.684;9.028;2022-11-24T03:08:34;3.23;;;1.43;;
8413;SDS011;4244;48.684;9.028;2022-11-24T03:11:00;4.00;;;1.60;;
8413;SDS011;4244;48.684;9.028;2022-11-24T03:13:26;4.20;;;1.30;;
8413;SDS011;4244;48.684;9.028;2022-11-24T03:15:52;4.47;;;1.67;;
8413;SDS011;4244;48.684;9.028;2022-11-24T03:18:17;2.90;;;1.23;;
8413;SDS011;4244;48.684;9.028;2022-11-24T03:20:43;5.23;;;2.13;;
8413;SDS011;4244;48.684;9.028;2022-11-24T03:23:09;6.20;;;1.60;;
8413;SDS011;4244;48.684;9.028;2022-11-24T03:25:34;3.87;;;1.80;;
8413;SDS011;4244;48.684;9.028;2022-11-24T03:28:00;4.43;;;1.50;;
8413;SDS011;4244;48.684;9.028;2022-11-24T03:30:25;4.70;;;2.00;;
8413;SDS011;4244;48.684;9.028;2022-11-24T03:32:51;5.20;;;1.53;;
8413;SDS011;4244;48.684;9.028;2022-11-24T03:35:20;4.50;;;1.70;;
8413;SDS011;4244;48.684;9.028;2022-11-24T03:37:46;5.57;;;1.87;;
8413;SDS011;4244;48.684;9.028;2022-11-24T03:40:12;3.10;;;1.77;;
8413;SDS011;4244;48.684;9.028;2022-11-24T03:42:38;7.20;;;1.80;;
8413;SDS011;4244;48.684;9.028;2022-11-24T03:45:04;3.90;;;1.80;;
8413;SDS011;4244;48.684;9.028;2022-11-24T03:47:30;4.23;;;1.63;;
8413;SDS011;4244;48.684;9.028;2022-11-24T03:49:56;4.83;;;1.60;;
8413;SDS011;4244;48.684;9.028;2022-11-24T03:52:21;4.37;;;1.80;;
8413;SDS011;4244;48.684;9.028;2022-11-24T03:54:50;3.03;;;1.83;;
8413;SDS011;4244;48.684;9.028;2022-11-24T03:57:16;4.33;;;2.00;;
8413;SDS011;4244;48.684;9.028;2022-11-24T03:59:42;4.20;;;1.87;;
8413;SDS011;4244;48.684;9.028;2022-11-24T04:02:07;3.93;;;1.73;;
8413;SDS011;4244;48.684;9.028;2022-11-24T04:04:33;6.33;;;1.80;;
8413;SDS011;4244;48.684;9.028;2022-11-24T04:06:58;4.70;;;1.90;;
8413;SDS011;4244;48.684;9.028;2022-11-24T04:09:24;7.20;;;2.20;;
8413;SDS011;4244;48.684;9.028;2022-11-24T04:11:49;5.57;;;1.70;;
8413;SDS011;4244;48.684;9.028;2022-11-24T04:14:33;5.73;;;1.93;;
8413;SDS011;4244;48.684;9.028;2022-11-24T04:16:59;3.77;;;2.10;;
8413;SDS011;4244;48.684;9.028;2022-11-24T04:19:24;4.63;;;1.80;;
8413;SDS011;4244;48.684;9.028;2022-11-24T04:21:50;5.00;;;2.03;;
8413;SDS011;4244;48.684;9.028;2022-11-24T04:24:15;5.73;;;2.37;;
8413;SDS011;4244;48.684;9.028;2022-11-24T04:26:41;6.93;;;2.43;;
8413;SDS011;4244;48.684;9.028;2022-11-24T04:29:08;4.50;;;2.10;;
8413;SDS011;4244;48.684;9.028;2022-11-24T04:31:33;4.77;;;2.20;;
8413;SDS011;4244;48.684;9.028;2022-11-24T04:33:59;9.83;;;3.47;;
8413;SDS011;4244;48.684;9.028;2022-11-24T04:36:25;11.20;;;3.07;;
8413;SDS011;4244;48.684;9.028;2022-11-24T04:38:51;5.10;;;1.90;;
8413;SDS011;4244;48.684;9.028;2022-11-24T04:41:18;4.23;;;1.93;;
8413;SDS011;4244;48.684;9.028;2022-11-24T04:43:43;3.87;;;1.77;;
8413;SDS011;4244;48.684;9.028;2022-11-24T04:46:09;5.33;;;2.03;;
8413;SDS011;4244;48.684;9.028;2022-11-24T04:48:35;5.67;;;2.40;;
8413;SDS011;4244;48.684;9.028;2022-11-24T04:51:04;6.07;;;2.20;;
8413;SDS011;4244;48.684;9.028;2022-11-24T04:53:30;5.67;;;2.13;;
8413;SDS011;4244;48.684;9.028;2022-11-24T04:55:56;10.20;;;2.40;;
8413;SDS011;4244;48.684;9.028;2022-11-24T04:58:21;5.87;;;1.80;;
8413;SDS011;4244;48.684;9.028;2022-11-24T05:00:47;7.20;;;2.37;;
8413;SDS011;4244;48.684;9.028;2022-11-24T05:03:12;8.97;;;2.47;;
8413;SDS011;4244;48.684;9.028;2022-11-24T05:05:38;8.10;;;3.03;;
8413;SDS011;4244;48.684;9.028;2022-11-24T05:08:03;5.17;;;2.30;;
8413;SDS011;4244;48.684;9.028;2022-11-24T05:10:29;6.13;;;2.77;;
8413;SDS011;4244;48.684;9.028;2022-11-24T05:13:02;8.63;;;2.60;;
8413;SDS011;4244;48.684;9.028;2022-11-24T05:15:29;5.20;;;2.30;;
8413;SDS011;4244;48.684;9.028;2022-11-24T05:17:55;5.10;;;2.13;;
8413;SDS011;4244;48.684;9.028;2022-11-24T05:20:21;5.13;;;1.80;;
8413;SDS011;4244;48.684;9.028;2022-11-24T05:22:47;7.10;;;2.63;;
8413;SDS011;4244;48.684;9.028;2022-11-24T05:25:12;8.03;;;2.13;;
8413;SDS011;4244;48.684;9.028;2022-11-24T05:27:38;5.50;;;2.07;;
8413;SDS011;4244;48.684;9.028;2022-11-24T05:30:04;5.40;;;1.93;;
8413;SDS011;4244;48.684;9.028;2022-11-24T05:32:30;8.87;;;2.10;;
8413;SDS011;4244;48.684;9.028;2022-11-24T05:34:56;3.77;;;2.30;;
8413;SDS011;4244;48.684;9.028;2022-11-24T05:37:22;6.03;;;2.43;;
8413;SDS011;4244;48.684;9.028;2022-11-24T05:39:49;6.67;;;2.30;;
8413;SDS011;4244;48.684;9.028;2022-11-24T05:42:15;8.00;;;2.07;;
8413;SDS011;4244;48.684;9.028;2022-11-24T05:44:59;6.80;;;1.97;;
8413;SDS011;4244;48.684;9.028;2022-11-24T05:47:24;9.20;;;2.50;;
8413;SDS011;4244;48.684;9.028;2022-11-24T05:49:50;10.60;;;2.10;;
8413;SDS011;4244;48.684;9.028;2022-11-24T05:52:16;8.60;;;2.20;;
8413;SDS011;4244;48.684;9.028;2022-11-24T05:54:41;8.07;;;2.77;;
8413;SDS011;4244;48.684;9.028;2022-11-24T05:57:07;3.73;;;1.50;;
8413;SDS011;4244;48.684;9.028;2022-11-24T05:59:33;5.43;;;1.63;;
8413;SDS011;4244;48.684;9.028;2022-11-24T06:01:58;5.20;;;2.03;;
8413;SDS011;4244;48.684;9.028;2022-11-24T06:04:24;9.60;;;2.53;;
8413;SDS011;4244;48.684;9.028;2022-11-24T06:06:50;9.90;;;2.93;;
8413;SDS011;4244;48.684;9.028;2022-11-24T06:09:16;6.53;;;2.03;;
8413;SDS011;4244;48.684;9.028;2022-11-24T06:11:42;10.27;;;2.70;;
8413;SDS011;4244;48.684;9.028;2022-11-24T06:14:08;5.93;;;2.10;;
8413;SDS011;4244;48.684;9.028;2022-11-24T06:16:34;12.63;;;3.87;;
8413;SDS011;4244;48.684;9.028;2022-11-24T06:19:00;7.30;;;3.30;;
8413;SDS011;4244;48.684;9.028;2022-11-24T06:21:26;9.60;;;2.47;;
8413;SDS011;4244;48.684;9.028;2022-11-24T06:23:52;7.43;;;2.53;;
8413;SDS011;4244;48.684;9.028;2022-11-24T06:26:17;8.70;;;2.60;;
8413;SDS011;4244;48.684;9.028;2022-11-24T06:28:43;8.90;;;3.30;;
8413;SDS011;4244;48.684;9.028;2022-11-24T06:31:09;7.80;;;2.90;;
8413;SDS011;4244;48.684;9.028;2022-11-24T06:33:35;7.30;;;2.60;;
8413;SDS011;4244;48.684;9.028;2022-11-24T06:36:06;10.50;;;2.57;;
8413;SDS011;4244;48.684;9.028;2022-11-24T06:38:33;10.53;;;3.90;;
8413;SDS011;4244;48.684;9.028;2022-11-24T06:41:00;7.07;;;2.97;;
8413;SDS011;4244;48.684;9.028;2022-11-24T06:43:30;13.90;;;2.30;;
8413;SDS011;4244;48.684;9.028;2022-11-24T06:45:56;7.63;;;2.20;;
8413;SDS011;4244;48.684;9.028;2022-11-24T06:48:22;8.67;;;2.33;;
8413;SDS011;4244;48.684;9.028;2022-11-24T06:50:48;7.70;;;2.30;;
8413;SDS011;4244;48.684;9.028;2022-11-24T06:53:14;8.10;;;2.80;;
8413;SDS011;4244;48.684;9.028;2022-11-24T06:55:39;7.97;;;2.00;;
8413;SDS011;4244;48.684;9.028;2022-11-24T06:58:05;8.70;;;2.77;;
8413;SDS011;4244;48.684;9.028;2022-11-24T07:00:31;8.97;;;3.00;;
8413;SDS011;4244;48.684;9.028;2022-11-24T07:02:59;11.33;;;2.50;;
8413;SDS011;4244;48.684;9.028;2022-11-24T07:05:25;10.03;;;2.47;;
8413;SDS011;4244;48.684;9.028;2022-11-24T07:07:51;9.37;;;2.30;;
8413;SDS011;4244;48.684;9.028;2022-11-24T07:10:17;3.87;;;2.13;;
8413;SDS011;4244;48.684;9.028;2022-11-24T07:12:42;10.30;;;2.10;;
8413;SDS011;4244;48.684;9.028;2022-11-24T07:15:08;12.53;;;3.03;;
8413;SDS011;4244;48.684;9.028;2022-11-24T07:17:37;7.57;;;2.00;;
8413;SDS011;4244;48.684;9.028;2022-11-24T07:20:04;5.87;;;2.17;;
8413;SDS011;4244;48.684;9.028;2022-11-24T07:22:30;8.03;;;2.97;;
8413;SDS011;4244;48.684;9.028;2022-11-24T07:24:56;9.83;;;3.00;;
8413;SDS011;4244;48.684;9.028;2022-11-24T07:27:21;6.27;;;2.10;;
8413;SDS011;4244;48.684;9.028;2022-11-24T07:29:47;4.33;;;2.10;;
8413;SDS011;4244;48.684;9.028;2022-11-24T07:32:13;7.10;;;3.50;;
8413;SDS011;4244;48.684;9.028;2022-11-24T07:34:38;6.73;;;2.60;;
8413;SDS011;4244;48.684;9.028;2022-11-24T07:37:04;9.87;;;3.23;;
8413;SDS011;4244;48.684;9.028;2022-11-24T07:39:29;10.10;;;3.70;;
8413;SDS011;4244;48.684;9.028;2022-11-24T07:41:56;5.87;;;2.00;;
8413;SDS011;4244;48.684;9.028;2022-11-24T07:44:23;6.20;;;2.80;;
8413;SDS011;4244;48.684;9.028;2022-11-24T07:46:48;12.30;;;3.57;;
8413;SDS011;4244;48.684;9.028;2022-11-24T07:49:15;10.67;;;2.57;;
8413;SDS011;4244;48.684;9.028;2022-11-24T07:51:41;6.83;;;3.17;;
8413;SDS011;4244;48.684;9.028;2022-11-24T07:54:06;6.03;;;2.23;;
8413;SDS011;4244;48.684;9.028;2022-11-24T07:56:32;9.70;;;2.30;;
8413;SDS011;4244;48.684;9.028;2022-11-24T07:58:57;7.03;;;3.03;;
8413;SDS011;4244;48.684;9.028;2022-11-24T08:01:23;9.80;;;2.43;;
8413;SDS011;4244;48.684;9.028;2022-11-24T08:03:50;8.00;;;3.03;;
8413;SDS011;4244;48.684;9.028;2022-11-24T08:06:15;8.70;;;3.03;;
8413;SDS011;4244;48.684;9.028;2022-11-24T08:08:42;9.07;;;3.13;;
8413;SDS011;4244;48.684;9.028;2022-11-24T08:11:12;9.70;;;3.00;;
8413;SDS011;4244;48.684;9.028;2022-11-24T08:13:39;9.40;;;3.30;;
8413;SDS011;4244;48.684;9.028;2022-11-24T08:16:06;6.30;;;2.60;;
8413;SDS011;4244;48.684;9.028;2022-11-24T08:18:36;6.77;;;2.30;;
8413;SDS011;4244;48.684;9.028;2022-11-24T08:21:02;4.50;;;2.10;;
8413;SDS011;4244;48.684;9.028;2022-11-24T08:23:28;6.00;;;2.10;;
8413;SDS011;4244;48.684;9.028;2022-11-24T08:25:54;7.97;;;2.77;;
8413;SDS011;4244;48.684;9.028;2022-11-24T08:28:21;5.60;;;1.80;;
8413;SDS011;4244;48.684;9.028;2022-11-24T08:30:47;3.97;;;1.60;;
8413;SDS011;4244;48.684;9.028;2022-11-24T08:33:13;7.17;;;2.20;;
8413;SDS011;4244;48.684;9.028;2022-11-24T08:35:38;5.00;;;2.03;;
8413;SDS011;4244;48.684;9.028;2022-11-24T08:38:04;4.83;;;1.90;;
8413;SDS011;4244;48.684;9.028;2022-11-24T08:40:30;3.30;;;1.60;;
8413;SDS011;4244;48.684;9.028;2022-11-24T08:42:58;3.63;;;1.90;;
8413;SDS011;4244;48.684;9.028;2022-11-24T08:45:25;4.20;;;1.50;;
8413;SDS011;4244;48.684;9.028;2022-11-24T08:47:54;3.00;;;1.93;;
8413;SDS011;4244;48.684;9.028;2022-11-24T08:50:21;2.00;;;1.10;;
8413;SDS011;4244;48.684;9.028;2022-11-24T08:52:47;3.17;;;1.80;;
8413;SDS011;4244;48.684;9.028;2022-11-24T08:55:14;1.97;;;1.00;;
8413;SDS011;4244;48.684;9.028;2022-11-24T08:57:40;2.20;;;1.00;;
8413;SDS011;4244;48.684;9.028;2022-11-24T09:00:06;2.43;;;0.90;;
8413;SDS011;4244;48.684;9.028;2022-11-24T09:02:33;1.33;;;0.70;;
8413;SDS011;4244;48.684;9.028;2022-11-24T09:04:59;1.93;;;1.00;;
8413;SDS011;4244;48.684;9.028;2022-11-24T09:07:25;2.67;;;1.10;;
8413;SDS011;4244;48.684;9.028;2022-11-24T09:09:50;3.00;;;0.97;;
8413;SDS011;4244;48.684;9.028;2022-11-24T09:12:16;2.10;;;1.23;;
8413;SDS011;4244;48.684;9.028;2022-11-24T09:14:41;1.87;;;0.90;;
8413;SDS011;4244;48.684;9.028;2022-11-24T09:17:07;3.00;;;1.50;;
8413;SDS011;4244;48.684;9.028;2022-11-24T09:19:32;1.40;;;1.00;;
8413;SDS011;4244;48.684;9.028;2022-11-24T09:21:58;2.20;;;1.10;;
8413;SDS011;4244;48.684;9.028;2022-11-24T09:24:24;2.00;;;1.47;;
8413;SDS011;4244;48.684;9.028;2022-11-24T09:26:49;2.80;;;1.20;;
8413;SDS011;4244;48.684;9.028;2022-11-24T09:29:15;1.83;;;1.13;;
8413;SDS011;4244;48.684;9.028;2022-11-24T09:31:41;1.77;;;1.30;;
8413;SDS011;4244;48.684;9.028;2022-11-24T09:34:07;2.27;;;0.87;;
8413;SDS011;4244;48.684;9.028;2022-11-24T09:36:36;1.50;;;0.70;;
8413;SDS011;4244;48.684;9.028;2022-11-24T09:39:02;1.30;;;0.80;;
8413;SDS011;4244;48.684;9.028;2022-11-24T09:41:37;1.00;;;0.50;;
8413;SDS011;4244;48.684;9.028;2022-11-24T09:44:15;1.10;;;0.50;;
8413;SDS011;4244;48.684;9.028;2022-11-24T09:50:03;1.13;;;0.57;;
8413;SDS011;4244;48.684;9.028;2022-11-24T09:52:41;1.60;;;0.57;;
8413;SDS011;4244;48.684;9.028;2022-11-24T09:55:45;1.37;;;0.60;;
8413;SDS011;4244;48.684;9.028;2022-11-24T09:58:17;1.27;;;0.57;;
8413;SDS011;4244;48.684;9.028;2022-11-24T10:00:45;1.00;;;0.60;;
8413;SDS011;4244;48.684;9.028;2022-11-24T10:03:19;1.03;;;0.50;;
8413;SDS011;4244;48.684;9.028;2022-11-24T10:05:49;1.70;;;0.50;;
8413;SDS011;4244;48.684;9.028;2022-11-24T10:10:57;0.93;;;0.47;;
8413;SDS011;4244;48.684;9.028;2022-11-24T10:24:46;1.20;;;0.53;;
8413;SDS011;4244;48.684;9.028;2022-11-24T10:30:24;0.80;;;0.40;;
8413;SDS011;4244;48.684;9.028;2022-11-24T10:32:57;1.57;;;0.83;;
8413;SDS011;4244;48.684;9.028;2022-11-24T10:43:25;1.77;;;0.60;;
8413;SDS011;4244;48.684;9.028;2022-11-24T10:45:52;1.40;;;0.67;;
8413;SDS011;4244;48.684;9.028;2022-11-24T10:48:21;1.67;;;0.70;;
8413;SDS011;4244;48.684;9.028;2022-11-24T10:50:49;1.50;;;0.50;;
8413;SDS011;4244;48.684;9.028;2022-11-24T10:53:30;1.53;;;0.80;;
8413;SDS011;4244;48.684;9.028;2022-11-24T10:58:41;1.80;;;0.60;;
8413;SDS011;4244;48.684;9.028;2022-11-24T11:03:44;2.60;;;0.70;;
8413;SDS011;4244;48.684;9.028;2022-11-24T11:06:12;1.57;;;0.80;;
8413;SDS011;4244;48.684;9.028;2022-11-24T11:08:39;1.40;;;0.70;;
8413;SDS011;4244;48.684;9.028;2022-11-24T11:14:02;1.53;;;0.87;;
8413;SDS011;4244;48.684;9.028;2022-11-24T11:16:36;1.37;;;0.80;;
8413;SDS011;4244;48.684;9.028;2022-11-24T11:22:03;1.50;;;0.80;;
8413;SDS011;4244;48.684;9.028;2022-11-24T11:24:36;1.53;;;0.90;;
8413;SDS011;4244;48.684;9.028;2022-11-24T11:27:07;1.53;;;0.77;;
8413;SDS011;4244;48.684;9.028;2022-11-24T11:29:42;2.27;;;0.93;;
8413;SDS011;4244;48.684;9.028;2022-11-24T11:34:46;2.60;;;1.00;;
8413;SDS011;4244;48.684;9.028;2022-11-24T11:37:13;3.17;;;0.90;;
8413;SDS011;4244;48.684;9.028;2022-11-24T11:39:40;1.17;;;0.57;;
8413;SDS011;4244;48.684;9.028;2022-11-24T11:47:14;4.20;;;0.90;;
8413;SDS011;4244;48.684;9.028;2022-11-24T11:49:48;5.53;;;1.40;;
8413;SDS011;4244;48.684;9.028;2022-11-24T11:58:04;2.73;;;1.10;;
8413;SDS011;4244;48.684;9.028;2022-11-24T12:00:53;3.63;;;1.30;;
8413;SDS011;4244;48.684;9.028;2022-11-24T12:09:08;2.30;;;1.13;;
8413;SDS011;4244;48.684;9.028;2022-11-24T12:11:48;2.57;;;1.20;;
8413;SDS011;4244;48.684;9.028;2022-11-24T12:14:42;1.70;;;1.27;;
8413;SDS011;4244;48.684;9.028;2022-11-24T12:17:29;5.33;;;1.77;;
8413;SDS011;4244;48.684;9.028;2022-11-24T12:28:36;3.10;;;1.43;;
8413;SDS011;4244;48.684;9.028;2022-11-24T12:31:17;3.47;;;1.80;;
8413;SDS011;4244;48.684;9.028;2022-11-24T12:36:49;3.40;;;1.70;;
8413;SDS011;4244;48.684;9.028;2022-11-24T12:39:47;5.40;;;1.27;;
8413;SDS011;4244;48.684;9.028;2022-11-24T12:42:31;5.73;;;1.40;;
8413;SDS011;4244;48.684;9.028;2022-11-24T12:50:28;4.37;;;1.40;;
8413;SDS011;4244;48.684;9.028;2022-11-24T12:53:07;5.07;;;1.60;;
8413;SDS011;4244;48.684;9.028;2022-11-24T12:55:46;2.97;;;1.40;;
8413;SDS011;4244;48.684;9.028;2022-11-24T12:58:17;3.20;;;1.33;;
8413;SDS011;4244;48.684;9.028;2022-11-24T13:09:10;4.40;;;1.53;;
8413;SDS011;4244;48.684;9.028;2022-11-24T13:11:40;2.70;;;1.57;;
8413;SDS011;4244;48.684;9.028;2022-11-24T13:14:19;5.10;;;1.67;;
8413;SDS011;4244;48.684;9.028;2022-11-24T13:16:50;2.93;;;1.33;;
8413;SDS011;4244;48.684;9.028;2022-11-24T13:19:22;4.30;;;1.83;;
8413;SDS011;4244;48.684;9.028;2022-11-24T13:21:55;2.87;;;1.40;;
8413;SDS011;4244;48.684;9.028;2022-11-24T13:24:46;4.17;;;1.70;;
8413;SDS011;4244;48.684;9.028;2022-11-24T13:27:52;3.97;;;1.70;;
8413;SDS011;4244;48.684;9.028;2022-11-24T13:33:44;2.97;;;1.60;;
8413;SDS011;4244;48.684;9.028;2022-11-24T13:38:50;3.00;;;1.50;;
8413;SDS011;4244;48.684;9.028;2022-11-24T13:49:35;4.47;;;1.40;;
8413;SDS011;4244;48.684;9.028;2022-11-24T13:52:48;4.47;;;1.40;;
8413;SDS011;4244;48.684;9.028;2022-11-24T13:55:03;4.73;;;1.90;;
8413;SDS011;4244;48.684;9.028;2022-11-24T13:57:57;3.80;;;1.80;;
8413;SDS011;4244;48.684;9.028;2022-11-24T14:05:32;3.73;;;1.30;;
8413;SDS011;4244;48.684;9.028;2022-11-24T14:08:02;5.17;;;1.60;;
8413;SDS011;4244;48.684;9.028;2022-11-24T14:10:31;7.60;;;1.60;;
8413;SDS011;4244;48.684;9.028;2022-11-24T14:18:39;5.80;;;1.77;;
8413;SDS011;4244;48.684;9.028;2022-11-24T14:23:50;5.10;;;1.63;;
8413;SDS011;4244;48.684;9.028;2022-11-24T14:26:31;5.40;;;2.03;;
8413;SDS011;4244;48.684;9.028;2022-11-24T14:31:38;2.80;;;1.23;;
8413;SDS011;4244;48.684;9.028;2022-11-24T14:36:38;3.80;;;1.70;;
8413;SDS011;4244;48.684;9.028;2022-11-24T14:39:04;4.87;;;1.50;;
8413;SDS011;4244;48.684;9.028;2022-11-24T14:41:31;2.37;;;1.30;;
8413;SDS011;4244;48.684;9.028;2022-11-24T14:47:24;5.67;;;1.70;;
8413;SDS011;4244;48.684;9.028;2022-11-24T14:49:51;5.10;;;1.93;;
8413;SDS011;4244;48.684;9.028;2022-11-24T14:52:18;8.07;;;1.90;;
8413;SDS011;4244;48.684;9.028;2022-11-24T14:54:48;3.53;;;1.37;;
8413;SDS011;4244;48.684;9.028;2022-11-24T14:57:34;3.37;;;1.50;;
8413;SDS011;4244;48.684;9.028;2022-11-24T15:00:05;4.10;;;1.63;;
8413;SDS011;4244;48.684;9.028;2022-11-24T15:02:47;3.00;;;1.43;;
8413;SDS011;4244;48.684;9.028;2022-11-24T15:05:25;3.23;;;1.63;;
8413;SDS011;4244;48.684;9.028;2022-11-24T15:08:13;4.50;;;1.73;;
8413;SDS011;4244;48.684;9.028;2022-11-24T15:10:38;3.93;;;1.30;;
8413;SDS011;4244;48.684;9.028;2022-11-24T15:13:18;3.00;;;1.93;;
8413;SDS011;4244;48.684;9.028;2022-11-24T15:15:47;4.03;;;1.93;;
8413;SDS011;4244;48.684;9.028;2022-11-24T15:18:25;2.60;;;1.20;;
8413;SDS011;4244;48.684;9.028;2022-11-24T15:20:51;4.80;;;1.70;;
8413;SDS011;4244;48.684;9.028;2022-11-24T15:28:28;4.67;;;2.23;;
8413;SDS011;4244;48.684;9.028;2022-11-24T15:30:59;3.47;;;1.43;;
8413;SDS011;4244;48.684;9.028;2022-11-24T15:33:26;4.90;;;2.40;;
8413;SDS011;4244;48.684;9.028;2022-11-24T15:35:52;5.17;;;2.63;;
8413;SDS011;4244;48.684;9.028;2022-11-24T15:38:18;6.03;;;2.50;;
8413;SDS011;4244;48.684;9.028;2022-11-24T15:40:47;6.40;;;2.30;;
8413;SDS011;4244;48.684;9.028;2022-11-24T15:43:24;2.97;;;2.00;;
8413;SDS011;4244;48.684;9.028;2022-11-24T15:45:55;5.80;;;3.00;;
8413;SDS011;4244;48.684;9.028;2022-11-24T15:48:21;4.80;;;3.00;;
8413;SDS011;4244;48.684;9.028;2022-11-24T15:50:46;5.17;;;3.33;;
8413;SDS011;4244;48.684;9.028;2022-11-24T15:53:14;5.67;;;3.37;;
8413;SDS011;4244;48.684;9.028;2022-11-24T15:55:46;4.80;;;3.10;;
8413;SDS011;4244;48.684;9.028;2022-11-24T15:58:12;6.70;;;3.03;;
8413;SDS011;4244;48.684;9.028;2022-11-24T16:00:38;10.13;;;3.00;;
8413;SDS011;4244;48.684;9.028;2022-11-24T16:03:04;4.10;;;2.93;;
8413;SDS011;4244;48.684;9.028;2022-11-24T16:05:30;5.30;;;3.23;;
8413;SDS011;4244;48.684;9.028;2022-11-24T16:07:56;6.93;;;3.37;;
8413;SDS011;4244;48.684;9.028;2022-11-24T16:10:26;5.63;;;2.20;;
8413;SDS011;4244;48.684;9.028;2022-11-24T16:12:54;2.93;;;2.20;;
8413;SDS011;4244;48.684;9.028;2022-11-24T16:15:19;5.47;;;2.20;;
8413;SDS011;4244;48.684;9.028;2022-11-24T16:17:45;6.83;;;2.87;;
8413;SDS011;4244;48.684;9.028;2022-11-24T16:20:12;3.83;;;1.90;;
8413;SDS011;4244;48.684;9.028;2022-11-24T16:22:37;4.30;;;2.57;;
8413;SDS011;4244;48.684;9.028;2022-11-24T16:25:03;4.80;;;2.27;;
8413;SDS011;4244;48.684;9.028;2022-11-24T16:27:29;6.23;;;2.43;;
8413;SDS011;4244;48.684;9.028;2022-11-24T16:29:55;4.07;;;2.10;;
8413;SDS011;4244;48.684;9.028;2022-11-24T16:32:21;5.37;;;2.70;;
8413;SDS011;4244;48.684;9.028;2022-11-24T16:34:46;5.70;;;2.40;;
8413;SDS011;4244;48.684;9.028;2022-11-24T16:37:12;5.27;;;2.73;;
8413;SDS011;4244;48.684;9.028;2022-11-24T16:39:37;7.50;;;2.87;;
8413;SDS011;4244;48.684;9.028;2022-11-24T16:42:03;6.17;;;2.20;;
8413;SDS011;4244;48.684;9.028;2022-11-24T16:44:29;3.67;;;2.70;;
8413;SDS011;4244;48.684;9.028;2022-11-24T16:46:54;7.13;;;2.97;;
8413;SDS011;4244;48.684;9.028;2022-11-24T16:49:20;4.77;;;3.40;;
8413;SDS011;4244;48.684;9.028;2022-11-24T16:51:46;4.80;;;3.10;;
8413;SDS011;4244;48.684;9.028;2022-11-24T16:54:12;5.20;;;3.00;;
8413;SDS011;4244;48.684;9.028;2022-11-24T16:56:37;6.10;;;3.77;;
8413;SDS011;4244;48.684;9.028;2022-11-24T16:59:03;5.67;;;3.17;;
8413;SDS011;4244;48.684;9.028;2022-11-24T17:01:29;6.93;;;4.27;;
8413;SDS011;4244;48.684;9.028;2022-11-24T17:03:56;6.37;;;4.00;;
8413;SDS011;4244;48.684;9.028;2022-11-24T17:06:22;6.20;;;3.60;;
8413;SDS011;4244;48.684;9.028;2022-11-24T17:08:48;7.73;;;4.37;;
8413;SDS011;4244;48.684;9.028;2022-11-24T17:11:17;7.23;;;4.33;;
8413;SDS011;4244;48.684;9.028;2022-11-24T17:13:45;8.17;;;5.67;;
8413;SDS011;4244;48.684;9.028;2022-11-24T17:16:13;8.50;;;4.87;;
8413;SDS011;4244;48.684;9.028;2022-11-24T17:18:43;8.83;;;5.13;;
8413;SDS011;4244;48.684;9.028;2022-11-24T17:21:13;7.30;;;4.77;;
8413;SDS011;4244;48.684;9.028;2022-11-24T17:23:42;11.03;;;5.63;;
8413;SDS011;4244;48.684;9.028;2022-11-24T17:26:12;6.83;;;3.73;;
8413;SDS011;4244;48.684;9.028;2022-11-24T17:28:39;7.30;;;3.50;;
8413;SDS011;4244;48.684;9.028;2022-11-24T17:31:07;6.60;;;3.53;;